ePrivacy and GPDR Cookie Consent by Cookie Consent
EmailTwitter


Observations de surface / France / LFBP (07610)

Régions: Québec | Canada | États-Unis | Europe | France | UK | Ailleurs
Station
Affichage
Infos & localisation pour LFBP (07610) | Aide pour décoder les METARs

Observations prises le 2022-09-30 à 18H30 UTC à PONT-LONG-UZEIN/, FR (LFBP)

Température: 14.0 Celsius

Point de rosée: 10.0 Celsius

Humidité relative: 77%

Vents: Ouest à 11 km/h ou 6 noeuds.

Pression au niveau moyen de la mer: 101.90 kilopascals.

Observation METAR:

LFBP 301830Z AUTO 27006KT CAVOK 14/10 Q1019 NOSIG=